sensor_id;sensor_type;location;lat;lon;timestamp;pressure;altitude;pressure_sealevel;temperature;humidity
27729;BME280;15126;42.186;24.340;2022-12-29T00:02:01;100500.72;;;6.28;87.33
27729;BME280;15126;42.186;24.340;2022-12-29T00:04:28;100495.03;;;6.17;87.32
27729;BME280;15126;42.186;24.340;2022-12-29T00:06:56;100497.84;;;6.21;87.67
27729;BME280;15126;42.186;24.340;2022-12-29T00:09:23;100501.00;;;6.19;87.33
27729;BME280;15126;42.186;24.340;2022-12-29T00:11:50;100500.84;;;6.35;87.41
27729;BME280;15126;42.186;24.340;2022-12-29T00:14:17;100503.28;;;6.40;87.16
27729;BME280;15126;42.186;24.340;2022-12-29T00:17:02;100496.22;;;6.42;87.39
27729;BME280;15126;42.186;24.340;2022-12-29T00:19:29;100505.22;;;6.36;87.58
27729;BME280;15126;42.186;24.340;2022-12-29T00:22:23;100496.06;;;6.32;86.87
27729;BME280;15126;42.186;24.340;2022-12-29T00:25:09;100505.97;;;6.33;87.57
27729;BME280;15126;42.186;24.340;2022-12-29T00:27:54;100498.19;;;6.42;87.04
27729;BME280;15126;42.186;24.340;2022-12-29T00:30:38;100516.50;;;6.50;86.88
27729;BME280;15126;42.186;24.340;2022-12-29T00:33:25;100511.50;;;6.59;86.24
27729;BME280;15126;42.186;24.340;2022-12-29T00:36:13;100523.44;;;6.63;86.38
27729;BME280;15126;42.186;24.340;2022-12-29T00:38:46;100525.44;;;6.66;86.11
27729;BME280;15126;42.186;24.340;2022-12-29T00:41:31;100524.66;;;6.66;86.58
27729;BME280;15126;42.186;24.340;2022-12-29T00:44:15;100512.19;;;6.52;86.50
27729;BME280;15126;42.186;24.340;2022-12-29T00:46:42;100535.38;;;6.67;86.14
27729;BME280;15126;42.186;24.340;2022-12-29T00:49:12;100532.13;;;6.62;86.07
27729;BME280;15126;42.186;24.340;2022-12-29T00:51:59;100530.91;;;6.59;86.20
27729;BME280;15126;42.186;24.340;2022-12-29T00:54:29;100525.75;;;6.57;86.65
27729;BME280;15126;42.186;24.340;2022-12-29T00:56:56;100530.22;;;6.66;86.24
27729;BME280;15126;42.186;24.340;2022-12-29T00:59:23;100534.63;;;6.70;85.95
27729;BME280;15126;42.186;24.340;2022-12-29T01:01:50;100529.91;;;6.74;84.81
27729;BME280;15126;42.186;24.340;2022-12-29T01:04:18;100527.13;;;6.74;84.95
27729;BME280;15126;42.186;24.340;2022-12-29T01:06:46;100531.94;;;6.77;84.28
27729;BME280;15126;42.186;24.340;2022-12-29T01:09:12;100523.59;;;6.74;83.93
27729;BME280;15126;42.186;24.340;2022-12-29T01:11:58;100531.19;;;6.80;84.15
27729;BME280;15126;42.186;24.340;2022-12-29T01:14:25;100527.59;;;6.76;83.94
27729;BME280;15126;42.186;24.340;2022-12-29T01:16:53;100525.97;;;6.75;84.08
27729;BME280;15126;42.186;24.340;2022-12-29T01:19:20;100514.06;;;6.71;83.79
27729;BME280;15126;42.186;24.340;2022-12-29T01:21:47;100514.81;;;6.72;84.04
27729;BME280;15126;42.186;24.340;2022-12-29T01:24:15;100515.22;;;6.70;84.03
27729;BME280;15126;42.186;24.340;2022-12-29T01:26:43;100512.88;;;6.72;84.15
27729;BME280;15126;42.186;24.340;2022-12-29T01:29:11;100508.94;;;6.73;84.08
27729;BME280;15126;42.186;24.340;2022-12-29T01:31:38;100512.50;;;6.74;84.00
27729;BME280;15126;42.186;24.340;2022-12-29T01:34:05;100506.16;;;6.73;84.09
27729;BME280;15126;42.186;24.340;2022-12-29T01:36:32;100495.72;;;6.63;84.87
27729;BME280;15126;42.186;24.340;2022-12-29T01:38:59;100494.19;;;6.66;84.65
27729;BME280;15126;42.186;24.340;2022-12-29T01:41:26;100492.56;;;6.65;84.70
27729;BME280;15126;42.186;24.340;2022-12-29T01:43:55;100491.44;;;6.69;84.30
27729;BME280;15126;42.186;24.340;2022-12-29T01:46:26;100496.56;;;6.67;83.94
27729;BME280;15126;42.186;24.340;2022-12-29T01:48:59;100492.19;;;6.66;83.87
27729;BME280;15126;42.186;24.340;2022-12-29T01:51:31;100489.00;;;6.64;83.84
27729;BME280;15126;42.186;24.340;2022-12-29T01:54:01;100483.78;;;6.59;83.90
27729;BME280;15126;42.186;24.340;2022-12-29T01:56:29;100480.94;;;6.55;84.00
27729;BME280;15126;42.186;24.340;2022-12-29T01:59:01;100478.16;;;6.52;83.81
27729;BME280;15126;42.186;24.340;2022-12-29T02:01:31;100478.44;;;6.47;83.78
27729;BME280;15126;42.186;24.340;2022-12-29T02:03:59;100466.53;;;6.43;84.54
27729;BME280;15126;42.186;24.340;2022-12-29T02:06:29;100464.09;;;6.38;84.61
27729;BME280;15126;42.186;24.340;2022-12-29T02:08:57;100466.88;;;6.38;84.37
27729;BME280;15126;42.186;24.340;2022-12-29T02:11:26;100462.81;;;6.32;84.63
27729;BME280;15126;42.186;24.340;2022-12-29T02:13:55;100461.19;;;6.31;84.42
27729;BME280;15126;42.186;24.340;2022-12-29T02:16:34;100456.41;;;6.28;84.79
27729;BME280;15126;42.186;24.340;2022-12-29T02:19:32;100453.97;;;6.23;84.29
27729;BME280;15126;42.186;24.340;2022-12-29T02:22:15;100453.88;;;6.16;84.86
27729;BME280;15126;42.186;24.340;2022-12-29T02:27:51;100445.81;;;6.07;85.05
27729;BME280;15126;42.186;24.340;2022-12-29T02:30:40;100449.22;;;5.97;85.26
27729;BME280;15126;42.186;24.340;2022-12-29T02:33:17;100444.25;;;5.83;85.80
27729;BME280;15126;42.186;24.340;2022-12-29T02:35:52;100456.63;;;5.89;85.89
27729;BME280;15126;42.186;24.340;2022-12-29T02:38:33;100450.72;;;5.91;85.36
27729;BME280;15126;42.186;24.340;2022-12-29T02:41:12;100447.09;;;5.87;85.13
27729;BME280;15126;42.186;24.340;2022-12-29T02:43:48;100443.06;;;5.84;85.53
27729;BME280;15126;42.186;24.340;2022-12-29T02:46:22;100450.94;;;5.82;85.18
27729;BME280;15126;42.186;24.340;2022-12-29T02:48:57;100435.38;;;5.74;84.92
27729;BME280;15126;42.186;24.340;2022-12-29T02:51:33;100440.13;;;5.74;85.04
27729;BME280;15126;42.186;24.340;2022-12-29T02:54:04;100428.94;;;5.67;84.71
27729;BME280;15126;42.186;24.340;2022-12-29T02:56:48;100435.69;;;5.69;85.11
27729;BME280;15126;42.186;24.340;2022-12-29T02:59:16;100428.53;;;5.65;85.02
27729;BME280;15126;42.186;24.340;2022-12-29T03:01:58;100421.31;;;5.60;85.59
27729;BME280;15126;42.186;24.340;2022-12-29T03:05:17;100431.88;;;5.55;86.21
27729;BME280;15126;42.186;24.340;2022-12-29T03:07:55;100430.66;;;5.52;85.83
27729;BME280;15126;42.186;24.340;2022-12-29T03:10:34;100421.94;;;5.50;85.80
27729;BME280;15126;42.186;24.340;2022-12-29T03:13:07;100425.00;;;5.45;85.92
27729;BME280;15126;42.186;24.340;2022-12-29T03:16:02;100425.75;;;5.42;86.01
27729;BME280;15126;42.186;24.340;2022-12-29T03:18:39;100418.91;;;5.36;86.03
27729;BME280;15126;42.186;24.340;2022-12-29T03:21:11;100421.69;;;5.36;86.35
27729;BME280;15126;42.186;24.340;2022-12-29T03:23:40;100424.84;;;5.34;86.05
27729;BME280;15126;42.186;24.340;2022-12-29T03:26:11;100420.03;;;5.31;86.25
27729;BME280;15126;42.186;24.340;2022-12-29T03:28:41;100420.38;;;5.30;86.07
27729;BME280;15126;42.186;24.340;2022-12-29T03:31:12;100417.19;;;5.28;86.01
27729;BME280;15126;42.186;24.340;2022-12-29T03:33:43;100413.59;;;5.24;86.24
27729;BME280;15126;42.186;24.340;2022-12-29T03:36:20;100421.88;;;5.24;86.03
27729;BME280;15126;42.186;24.340;2022-12-29T03:38:55;100420.56;;;5.18;85.84
27729;BME280;15126;42.186;24.340;2022-12-29T03:41:28;100418.19;;;5.16;85.69
27729;BME280;15126;42.186;24.340;2022-12-29T03:43:56;100426.50;;;5.16;85.61
27729;BME280;15126;42.186;24.340;2022-12-29T03:46:23;100427.66;;;5.15;85.60
27729;BME280;15126;42.186;24.340;2022-12-29T03:48:51;100417.69;;;5.11;85.93
27729;BME280;15126;42.186;24.340;2022-12-29T03:51:18;100416.38;;;5.05;86.36
27729;BME280;15126;42.186;24.340;2022-12-29T03:53:45;100429.91;;;5.10;86.05
27729;BME280;15126;42.186;24.340;2022-12-29T03:56:11;100429.91;;;5.10;85.50
27729;BME280;15126;42.186;24.340;2022-12-29T03:58:38;100428.28;;;5.09;85.57
27729;BME280;15126;42.186;24.340;2022-12-29T04:01:05;100432.25;;;5.08;85.70
27729;BME280;15126;42.186;24.340;2022-12-29T04:03:35;100432.25;;;5.08;86.04
27729;BME280;15126;42.186;24.340;2022-12-29T04:06:04;100414.28;;;4.98;86.67
27729;BME280;15126;42.186;24.340;2022-12-29T04:08:31;100430.72;;;5.10;86.55
27729;BME280;15126;42.186;24.340;2022-12-29T04:10:57;100434.28;;;5.11;86.27
27729;BME280;15126;42.186;24.340;2022-12-29T04:13:24;100432.66;;;5.10;86.17
27729;BME280;15126;42.186;24.340;2022-12-29T04:15:51;100449.59;;;5.08;87.04
27729;BME280;15126;42.186;24.340;2022-12-29T04:18:18;100431.28;;;5.00;87.18
27729;BME280;15126;42.186;24.340;2022-12-29T04:20:45;100442.13;;;5.09;86.93
27729;BME280;15126;42.186;24.340;2022-12-29T04:23:31;100438.56;;;5.08;86.66
27729;BME280;15126;42.186;24.340;2022-12-29T04:25:58;100449.59;;;5.08;86.68
27729;BME280;15126;42.186;24.340;2022-12-29T04:28:25;100459.09;;;5.07;86.06
27729;BME280;15126;42.186;24.340;2022-12-29T04:30:52;100455.13;;;5.08;86.23
27729;BME280;15126;42.186;24.340;2022-12-29T04:33:19;100461.03;;;5.07;85.99
27729;BME280;15126;42.186;24.340;2022-12-29T04:35:47;100453.13;;;5.05;85.92
27729;BME280;15126;42.186;24.340;2022-12-29T04:38:14;100456.66;;;5.06;85.97
27729;BME280;15126;42.186;24.340;2022-12-29T04:40:43;100460.63;;;5.05;86.74
27729;BME280;15126;42.186;24.340;2022-12-29T04:43:10;100461.69;;;5.00;86.48
27729;BME280;15126;42.186;24.340;2022-12-29T04:45:37;100466.06;;;5.01;87.11
27729;BME280;15126;42.186;24.340;2022-12-29T04:48:05;100456.63;;;5.02;86.49
27729;BME280;15126;42.186;24.340;2022-12-29T04:50:31;100452.91;;;4.95;86.07
27729;BME280;15126;42.186;24.340;2022-12-29T04:52:58;100460.84;;;4.96;86.53
27729;BME280;15126;42.186;24.340;2022-12-29T04:55:25;100466.66;;;4.91;86.42
27729;BME280;15126;42.186;24.340;2022-12-29T04:57:53;100458.28;;;4.88;86.02
27729;BME280;15126;42.186;24.340;2022-12-29T05:00:20;100464.97;;;4.87;85.96
27729;BME280;15126;42.186;24.340;2022-12-29T05:02:47;100441.88;;;4.75;86.08
27729;BME280;15126;42.186;24.340;2022-12-29T05:05:14;100465.28;;;4.81;85.92
27729;BME280;15126;42.186;24.340;2022-12-29T05:07:41;100458.09;;;4.77;86.38
27729;BME280;15126;42.186;24.340;2022-12-29T05:10:08;100454.81;;;4.71;86.51
27729;BME280;15126;42.186;24.340;2022-12-29T05:12:36;100450.81;;;4.69;86.51
27729;BME280;15126;42.186;24.340;2022-12-29T05:15:07;100447.63;;;4.67;86.79
27729;BME280;15126;42.186;24.340;2022-12-29T05:17:34;100451.09;;;4.64;86.86
27729;BME280;15126;42.186;24.340;2022-12-29T05:20:01;100451.03;;;4.60;86.95
27729;BME280;15126;42.186;24.340;2022-12-29T05:22:28;100450.16;;;4.56;87.60
27729;BME280;15126;42.186;24.340;2022-12-29T05:24:54;100444.63;;;4.56;87.44
27729;BME280;15126;42.186;24.340;2022-12-29T05:27:21;100437.06;;;4.53;86.90
27729;BME280;15126;42.186;24.340;2022-12-29T05:29:48;100442.94;;;4.52;86.73
27729;BME280;15126;42.186;24.340;2022-12-29T05:32:16;100446.88;;;4.51;87.43
27729;BME280;15126;42.186;24.340;2022-12-29T05:34:43;100436.38;;;4.41;87.33
27729;BME280;15126;42.186;24.340;2022-12-29T05:37:09;100453.41;;;4.43;87.54
27729;BME280;15126;42.186;24.340;2022-12-29T05:39:36;100445.38;;;4.38;87.53
27729;BME280;15126;42.186;24.340;2022-12-29T05:42:03;100448.25;;;4.41;87.16
27729;BME280;15126;42.186;24.340;2022-12-29T05:44:30;100447.81;;;4.39;87.36
27729;BME280;15126;42.186;24.340;2022-12-29T05:46:57;100444.63;;;4.37;88.05
27729;BME280;15126;42.186;24.340;2022-12-29T05:49:25;100441.69;;;4.30;87.70
27729;BME280;15126;42.186;24.340;2022-12-29T05:51:51;100434.19;;;4.31;87.48
27729;BME280;15126;42.186;24.340;2022-12-29T05:54:18;100448.09;;;4.34;87.37
27729;BME280;15126;42.186;24.340;2022-12-29T05:56:45;100449.97;;;4.30;87.24
27729;BME280;15126;42.186;24.340;2022-12-29T05:59:12;100452.38;;;4.32;87.52
27729;BME280;15126;42.186;24.340;2022-12-29T06:01:38;100457.44;;;4.30;87.55
27729;BME280;15126;42.186;24.340;2022-12-29T06:04:05;100453.38;;;4.24;87.21
27729;BME280;15126;42.186;24.340;2022-12-29T06:06:33;100463.44;;;4.32;88.22
27729;BME280;15126;42.186;24.340;2022-12-29T06:09:00;100428.56;;;4.08;87.64
27729;BME280;15126;42.186;24.340;2022-12-29T06:11:30;100466.09;;;4.28;88.15
27729;BME280;15126;42.186;24.340;2022-12-29T06:13:56;100462.09;;;4.26;88.20
27729;BME280;15126;42.186;24.340;2022-12-29T06:16:23;100474.09;;;4.33;88.14
27729;BME280;15126;42.186;24.340;2022-12-29T06:18:50;100472.47;;;4.32;88.19
27729;BME280;15126;42.186;24.340;2022-12-29T06:21:17;100476.06;;;4.33;88.88
27729;BME280;15126;42.186;24.340;2022-12-29T06:23:45;100475.72;;;4.34;88.54
27729;BME280;15126;42.186;24.340;2022-12-29T06:26:12;100475.34;;;4.36;88.72
27729;BME280;15126;42.186;24.340;2022-12-29T06:28:39;100478.19;;;4.39;88.84
27729;BME280;15126;42.186;24.340;2022-12-29T06:31:08;100488.50;;;4.42;88.68
27729;BME280;15126;42.186;24.340;2022-12-29T06:33:35;100483.78;;;4.43;89.02
27729;BME280;15126;42.186;24.340;2022-12-29T06:36:02;100494.19;;;4.49;88.31
27729;BME280;15126;42.186;24.340;2022-12-29T06:38:29;100497.38;;;4.51;88.97
27729;BME280;15126;42.186;24.340;2022-12-29T06:40:58;100488.66;;;4.49;88.96
27729;BME280;15126;42.186;24.340;2022-12-29T06:43:24;100499.06;;;4.56;88.57
27729;BME280;15126;42.186;24.340;2022-12-29T06:45:51;100509.03;;;4.60;88.25
27729;BME280;15126;42.186;24.340;2022-12-29T06:48:18;100501.19;;;4.62;88.58
27729;BME280;15126;42.186;24.340;2022-12-29T06:50:45;100489.25;;;4.58;88.98
27729;BME280;15126;42.186;24.340;2022-12-29T06:53:11;100500.47;;;4.65;89.12
27729;BME280;15126;42.186;24.340;2022-12-29T06:55:39;100510.50;;;4.73;88.89
27729;BME280;15126;42.186;24.340;2022-12-29T06:58:07;100514.44;;;4.72;89.89
27729;BME280;15126;42.186;24.340;2022-12-29T07:00:34;100509.63;;;4.69;90.56
27729;BME280;15126;42.186;24.340;2022-12-29T07:03:01;100510.16;;;4.75;90.39
27729;BME280;15126;42.186;24.340;2022-12-29T07:05:30;100496.38;;;4.78;91.01
27729;BME280;15126;42.186;24.340;2022-12-29T07:07:58;100503.97;;;5.01;89.82
27729;BME280;15126;42.186;24.340;2022-12-29T07:10:25;100506.09;;;5.07;90.31
27729;BME280;15126;42.186;24.340;2022-12-29T07:12:52;100517.66;;;5.13;89.75
27729;BME280;15126;42.186;24.340;2022-12-29T07:15:20;100514.97;;;5.16;89.28
27729;BME280;15126;42.186;24.340;2022-12-29T07:17:47;100520.84;;;5.15;89.34
27729;BME280;15126;42.186;24.340;2022-12-29T07:20:15;100497.72;;;5.04;89.99
27729;BME280;15126;42.186;24.340;2022-12-29T07:22:42;100511.09;;;5.02;90.45
27729;BME280;15126;42.186;24.340;2022-12-29T07:25:09;100510.44;;;5.08;90.13
27729;BME280;15126;42.186;24.340;2022-12-29T07:27:36;100508.84;;;5.07;90.34
27729;BME280;15126;42.186;24.340;2022-12-29T07:30:03;100502.13;;;5.08;89.40
27729;BME280;15126;42.186;24.340;2022-12-29T07:32:33;100509.78;;;5.15;89.18
27729;BME280;15126;42.186;24.340;2022-12-29T07:35:01;100508.03;;;5.26;89.28
27729;BME280;15126;42.186;24.340;2022-12-29T07:37:28;100505.16;;;5.41;89.50
27729;BME280;15126;42.186;24.340;2022-12-29T07:39:54;100506.22;;;5.56;89.21
27729;BME280;15126;42.186;24.340;2022-12-29T07:42:21;100502.13;;;5.69;88.93
27729;BME280;15126;42.186;24.340;2022-12-29T07:44:48;100501.66;;;5.86;88.36
27729;BME280;15126;42.186;24.340;2022-12-29T07:47:15;100501.09;;;6.00;88.09
27729;BME280;15126;42.186;24.340;2022-12-29T07:49:43;100473.34;;;5.96;86.59
27729;BME280;15126;42.186;24.340;2022-12-29T07:52:10;100496.38;;;6.27;86.05
27729;BME280;15126;42.186;24.340;2022-12-29T07:54:37;100492.97;;;6.37;85.58
27729;BME280;15126;42.186;24.340;2022-12-29T07:57:04;100494.81;;;6.55;84.89
27729;BME280;15126;42.186;24.340;2022-12-29T07:59:31;100496.97;;;6.69;84.62
27729;BME280;15126;42.186;24.340;2022-12-29T08:01:58;100496.38;;;6.83;84.10
27729;BME280;15126;42.186;24.340;2022-12-29T08:04:25;100496.94;;;6.95;83.89
27729;BME280;15126;42.186;24.340;2022-12-29T08:06:53;100493.44;;;7.02;83.36
27729;BME280;15126;42.186;24.340;2022-12-29T08:09:20;100491.66;;;7.16;82.61
27729;BME280;15126;42.186;24.340;2022-12-29T08:11:47;100496.16;;;7.28;81.87
27729;BME280;15126;42.186;24.340;2022-12-29T08:14:13;100488.69;;;7.36;81.33
27729;BME280;15126;42.186;24.340;2022-12-29T08:16:40;100473.94;;;7.28;81.57
27729;BME280;15126;42.186;24.340;2022-12-29T08:19:10;100498.28;;;7.42;82.02
27729;BME280;15126;42.186;24.340;2022-12-29T08:21:37;100499.50;;;7.48;81.18
27729;BME280;15126;42.186;24.340;2022-12-29T08:24:05;100497.63;;;7.59;80.55
27729;BME280;15126;42.186;24.340;2022-12-29T08:26:33;100489.81;;;7.68;80.29
27729;BME280;15126;42.186;24.340;2022-12-29T08:28:59;100488.69;;;7.76;79.73
27729;BME280;15126;42.186;24.340;2022-12-29T08:31:26;100484.81;;;7.84;79.81
27729;BME280;15126;42.186;24.340;2022-12-29T08:33:53;100482.81;;;7.85;79.60
27729;BME280;15126;42.186;24.340;2022-12-29T08:36:20;100478.94;;;7.93;79.18
27729;BME280;15126;42.186;24.340;2022-12-29T08:38:46;100486.50;;;7.96;79.18
27729;BME280;15126;42.186;24.340;2022-12-29T08:41:15;100484.94;;;7.98;78.37
27729;BME280;15126;42.186;24.340;2022-12-29T08:43:45;100465.44;;;7.95;78.22
27729;BME280;15126;42.186;24.340;2022-12-29T08:46:12;100475.06;;;8.08;78.04
27729;BME280;15126;42.186;24.340;2022-12-29T08:48:39;100478.31;;;8.17;78.17
27729;BME280;15126;42.186;24.340;2022-12-29T08:51:06;100468.81;;;8.21;78.29
27729;BME280;15126;42.186;24.340;2022-12-29T08:53:33;100466.13;;;8.28;77.76
27729;BME280;15126;42.186;24.340;2022-12-29T08:56:01;100467.34;;;8.34;76.96
27729;BME280;15126;42.186;24.340;2022-12-29T08:58:31;100463.41;;;8.43;76.36
27729;BME280;15126;42.186;24.340;2022-12-29T09:00:59;100447.56;;;8.47;75.97
27729;BME280;15126;42.186;24.340;2022-12-29T09:03:26;100446.44;;;8.58;75.72
27729;BME280;15126;42.186;24.340;2022-12-29T09:05:54;100444.50;;;8.66;75.48
27729;BME280;15126;42.186;24.340;2022-12-29T09:08:22;100451.25;;;8.68;75.35
27729;BME280;15126;42.186;24.340;2022-12-29T09:10:49;100441.75;;;8.76;74.71
27729;BME280;15126;42.186;24.340;2022-12-29T09:13:18;100435.03;;;8.81;74.45
27729;BME280;15126;42.186;24.340;2022-12-29T09:15:46;100437.44;;;8.82;74.30
27729;BME280;15126;42.186;24.340;2022-12-29T09:18:13;100432.31;;;8.98;74.00
27729;BME280;15126;42.186;24.340;2022-12-29T09:20:40;100430.75;;;9.08;74.02
27729;BME280;15126;42.186;24.340;2022-12-29T09:23:07;100426.78;;;9.13;73.40
27729;BME280;15126;42.186;24.340;2022-12-29T09:25:33;100424.44;;;9.18;72.95
27729;BME280;15126;42.186;24.340;2022-12-29T09:28:00;100418.47;;;9.23;71.77
27729;BME280;15126;42.186;24.340;2022-12-29T09:30:33;100421.66;;;9.25;72.33
27729;BME280;15126;42.186;24.340;2022-12-29T09:33:01;100412.13;;;9.33;72.30
27729;BME280;15126;42.186;24.340;2022-12-29T09:35:28;100414.91;;;9.37;71.32
27729;BME280;15126;42.186;24.340;2022-12-29T09:37:54;100409.75;;;9.42;72.02
27729;BME280;15126;42.186;24.340;2022-12-29T09:40:26;100402.19;;;9.46;71.47
27729;BME280;15126;42.186;24.340;2022-12-29T09:43:23;100395.44;;;9.58;70.82
27729;BME280;15126;42.186;24.340;2022-12-29T09:45:55;100379.13;;;9.60;70.93
27729;BME280;15126;42.186;24.340;2022-12-29T09:48:29;100385.50;;;9.75;69.20
27729;BME280;15126;42.186;24.340;2022-12-29T09:51:01;100385.88;;;9.80;69.95
27729;BME280;15126;42.186;24.340;2022-12-29T09:53:33;100378.72;;;9.83;70.81
27729;BME280;15126;42.186;24.340;2022-12-29T09:56:04;100379.50;;;9.94;70.92
27729;BME280;15126;42.186;24.340;2022-12-29T09:58:34;100380.69;;;9.96;70.38
27729;BME280;15126;42.186;24.340;2022-12-29T10:01:05;100359.19;;;10.04;69.90
27729;BME280;15126;42.186;24.340;2022-12-29T10:03:45;100373.13;;;10.18;69.15
27729;BME280;15126;42.186;24.340;2022-12-29T10:06:17;100354.78;;;10.24;68.98
27729;BME280;15126;42.186;24.340;2022-12-29T10:08:50;100355.56;;;10.35;69.05
27729;BME280;15126;42.186;24.340;2022-12-29T10:11:28;100346.00;;;10.33;68.21
27729;BME280;15126;42.186;24.340;2022-12-29T10:14:17;100350.75;;;10.43;68.17
27729;BME280;15126;42.186;24.340;2022-12-29T10:16:54;100350.72;;;10.46;68.68
27729;BME280;15126;42.186;24.340;2022-12-29T10:19:43;100346.72;;;10.47;68.53
27729;BME280;15126;42.186;24.340;2022-12-29T10:22:28;100346.31;;;10.52;66.90
27729;BME280;15126;42.186;24.340;2022-12-29T10:25:00;100330.78;;;10.51;66.55
27729;BME280;15126;42.186;24.340;2022-12-29T10:27:31;100341.53;;;10.49;67.86
27729;BME280;15126;42.186;24.340;2022-12-29T10:30:01;100337.13;;;10.52;68.02
27729;BME280;15126;42.186;24.340;2022-12-29T10:32:34;100339.56;;;10.46;68.43
27729;BME280;15126;42.186;24.340;2022-12-29T10:35:10;100328.75;;;10.62;68.87
27729;BME280;15126;42.186;24.340;2022-12-29T10:37:45;100333.91;;;10.60;68.26
27729;BME280;15126;42.186;24.340;2022-12-29T10:40:19;100349.03;;;10.66;68.04
27729;BME280;15126;42.186;24.340;2022-12-29T10:42:52;100331.53;;;10.59;67.58
27729;BME280;15126;42.186;24.340;2022-12-29T10:45:20;100334.69;;;10.68;68.18
27729;BME280;15126;42.186;24.340;2022-12-29T10:47:55;100331.47;;;10.73;68.27
27729;BME280;15126;42.186;24.340;2022-12-29T10:50:25;100328.19;;;10.85;67.80
27729;BME280;15126;42.186;24.340;2022-12-29T10:52:56;100324.25;;;10.79;67.55
27729;BME280;15126;42.186;24.340;2022-12-29T10:55:27;100318.28;;;10.73;67.55
27729;BME280;15126;42.186;24.340;2022-12-29T10:58:01;100318.28;;;10.77;67.07
27729;BME280;15126;42.186;24.340;2022-12-29T11:00:30;100316.66;;;10.87;67.10
27729;BME280;15126;42.186;24.340;2022-12-29T11:03:12;100320.97;;;10.95;66.73
27729;BME280;15126;42.186;24.340;2022-12-29T11:05:49;100311.44;;;10.92;65.83
27729;BME280;15126;42.186;24.340;2022-12-29T11:08:22;100313.38;;;10.99;66.09
27729;BME280;15126;42.186;24.340;2022-12-29T11:10:58;100308.50;;;11.13;66.77
27729;BME280;15126;42.186;24.340;2022-12-29T11:13:27;100302.47;;;11.18;66.11
27729;BME280;15126;42.186;24.340;2022-12-29T11:15:55;100278.25;;;11.01;65.75
27729;BME280;15126;42.186;24.340;2022-12-29T11:18:24;100290.13;;;11.16;65.66
27729;BME280;15126;42.186;24.340;2022-12-29T11:20:54;100292.44;;;11.24;65.35
27729;BME280;15126;42.186;24.340;2022-12-29T11:23:28;100286.91;;;11.17;65.80
27729;BME280;15126;42.186;24.340;2022-12-29T11:26:17;100285.19;;;11.34;65.81
27729;BME280;15126;42.186;24.340;2022-12-29T11:28:45;100281.53;;;11.41;65.90
27729;BME280;15126;42.186;24.340;2022-12-29T11:31:16;100279.59;;;11.34;66.47
27729;BME280;15126;42.186;24.340;2022-12-29T11:33:43;100287.22;;;11.30;66.52
27729;BME280;15126;42.186;24.340;2022-12-29T11:36:15;100272.03;;;11.31;66.20
27729;BME280;15126;42.186;24.340;2022-12-29T11:38:46;100278.44;;;11.28;66.79
27729;BME280;15126;42.186;24.340;2022-12-29T11:41:22;100276.06;;;11.26;66.04
27729;BME280;15126;42.186;24.340;2022-12-29T11:43:52;100268.03;;;11.35;65.94
27729;BME280;15126;42.186;24.340;2022-12-29T11:46:23;100263.25;;;11.32;65.74
27729;BME280;15126;42.186;24.340;2022-12-29T11:48:50;100253.25;;;11.35;66.07
27729;BME280;15126;42.186;24.340;2022-12-29T11:51:29;100263.19;;;11.40;65.66
27729;BME280;15126;42.186;24.340;2022-12-29T11:53:58;100258.53;;;11.22;66.78
27729;BME280;15126;42.186;24.340;2022-12-29T11:56:36;100246.88;;;11.34;66.23
27729;BME280;15126;42.186;24.340;2022-12-29T11:59:36;100249.66;;;11.38;66.21
27729;BME280;15126;42.186;24.340;2022-12-29T12:02:15;100246.59;;;11.22;65.97
27729;BME280;15126;42.186;24.340;2022-12-29T12:04:49;100246.53;;;11.29;66.18
27729;BME280;15126;42.186;24.340;2022-12-29T12:07:31;100241.84;;;11.15;66.83
27729;BME280;15126;42.186;24.340;2022-12-29T12:10:03;100241.88;;;11.12;66.97
27729;BME280;15126;42.186;24.340;2022-12-29T12:12:36;100239.78;;;11.26;67.59
27729;BME280;15126;42.186;24.340;2022-12-29T12:15:09;100230.91;;;11.35;66.92
27729;BME280;15126;42.186;24.340;2022-12-29T12:17:47;100229.28;;;11.41;66.47
27729;BME280;15126;42.186;24.340;2022-12-29T12:20:18;100238.38;;;11.49;65.91
27729;BME280;15126;42.186;24.340;2022-12-29T12:22:54;100226.53;;;11.34;66.82
27729;BME280;15126;42.186;24.340;2022-12-29T12:25:30;100228.88;;;11.39;66.45
27729;BME280;15126;42.186;24.340;2022-12-29T12:28:04;100233.38;;;11.29;66.26
27729;BME280;15126;42.186;24.340;2022-12-29T12:30:38;100226.53;;;11.34;66.55
27729;BME280;15126;42.186;24.340;2022-12-29T12:33:15;100220.50;;;11.39;66.58
27729;BME280;15126;42.186;24.340;2022-12-29T12:35:53;100222.50;;;11.39;66.16
27729;BME280;15126;42.186;24.340;2022-12-29T12:38:31;100213.72;;;11.36;65.67
27729;BME280;15126;42.186;24.340;2022-12-29T12:41:10;100206.97;;;11.34;66.30
27729;BME280;15126;42.186;24.340;2022-12-29T12:43:41;100218.47;;;11.43;66.29
27729;BME280;15126;42.186;24.340;2022-12-29T12:46:27;100211.66;;;11.44;65.99
27729;BME280;15126;42.186;24.340;2022-12-29T12:52:10;100209.31;;;11.39;65.85
27729;BME280;15126;42.186;24.340;2022-12-29T12:54:58;100212.19;;;11.32;66.02
27729;BME280;15126;42.186;24.340;2022-12-29T12:57:45;100216.13;;;11.38;65.69
27729;BME280;15126;42.186;24.340;2022-12-29T13:00:18;100213.78;;;11.33;66.73
27729;BME280;15126;42.186;24.340;2022-12-29T13:02:56;100205.78;;;11.35;65.86
27729;BME280;15126;42.186;24.340;2022-12-29T13:08:53;100207.16;;;11.16;66.57
27729;BME280;15126;42.186;24.340;2022-12-29T13:11:39;100207.97;;;11.17;67.42
27729;BME280;15126;42.186;24.340;2022-12-29T13:14:28;100219.59;;;11.08;67.50
27729;BME280;15126;42.186;24.340;2022-12-29T13:17:03;100208.47;;;11.05;67.52
27729;BME280;15126;42.186;24.340;2022-12-29T13:19:37;100205.34;;;10.96;67.88